createdAt,value
2018-09-14T00:02:26.588Z,54.30
2018-09-14T00:05:02.679Z,45.90
2018-09-14T00:07:36.184Z,47.30
2018-09-14T00:10:09.904Z,50.47
2018-09-14T00:12:44.895Z,49.90
2018-09-14T00:15:16.644Z,46.43
2018-09-14T00:17:51.044Z,57.20
2018-09-14T00:20:23.974Z,58.90
2018-09-14T00:22:56.602Z,59.07
2018-09-14T00:25:30.092Z,54.77
2018-09-14T00:28:04.356Z,67.23
2018-09-14T00:30:36.884Z,67.80
2018-09-14T00:33:09.425Z,54.65
2018-09-14T00:35:42.480Z,59.53
2018-09-14T00:38:15.013Z,79.70
2018-09-14T00:40:47.592Z,81.85
2018-09-14T00:43:20.500Z,77.00
2018-09-14T00:45:53.150Z,71.10
2018-09-14T00:48:27.964Z,70.47
2018-09-14T00:51:00.780Z,62.03
2018-09-14T00:53:34.807Z,49.17
2018-09-14T00:56:07.463Z,42.67
2018-09-14T00:58:40.370Z,48.73
2018-09-14T01:01:13.557Z,51.33
2018-09-14T01:03:46.084Z,41.93
2018-09-14T01:06:19.292Z,41.33
2018-09-14T01:08:52.111Z,76.35
2018-09-14T01:11:25.613Z,63.23
2018-09-14T01:13:58.704Z,50.23
2018-09-14T01:16:31.216Z,58.40
2018-09-14T01:19:03.856Z,45.77
2018-09-14T01:21:36.736Z,68.37
2018-09-14T01:24:09.636Z,54.08
2018-09-14T01:26:42.783Z,50.13
2018-09-14T01:29:16.216Z,45.57
2018-09-14T01:31:48.836Z,46.77
2018-09-14T01:34:21.668Z,54.30
2018-09-14T01:36:55.857Z,56.70
2018-09-14T01:39:28.894Z,49.20
2018-09-14T01:42:01.467Z,48.27
2018-09-14T01:44:34.411Z,58.67
2018-09-14T01:47:07.052Z,60.03
2018-09-14T01:49:40.563Z,83.65
2018-09-14T01:52:13.339Z,85.50
2018-09-14T01:54:45.923Z,87.23
2018-09-14T01:57:19.020Z,78.07
2018-09-14T01:59:51.566Z,69.03
2018-09-14T02:02:24.176Z,63.97
2018-09-14T02:04:57.117Z,61.90
2018-09-14T02:07:32.311Z,66.87
2018-09-14T02:10:05.713Z,65.10
2018-09-14T02:12:38.292Z,62.17
2018-09-14T02:15:12.296Z,65.27
2018-09-14T02:17:45.380Z,70.30
2018-09-14T02:20:19.227Z,87.47
2018-09-14T02:22:51.940Z,87.37
2018-09-14T02:25:24.909Z,93.03
2018-09-14T02:27:57.456Z,81.50
2018-09-14T02:30:30.240Z,85.83
2018-09-14T02:33:03.205Z,94.33
2018-09-14T02:35:35.776Z,88.90
2018-09-14T02:38:08.390Z,88.97
2018-09-14T02:40:41.373Z,81.90
2018-09-14T02:43:13.990Z,78.47
2018-09-14T02:45:46.499Z,83.70
2018-09-14T02:48:19.775Z,70.87
2018-09-14T02:50:52.472Z,66.80
2018-09-14T02:53:25.877Z,67.13
2018-09-14T02:55:59.022Z,81.03
2018-09-14T02:58:32.488Z,86.40
2018-09-14T03:01:06.998Z,78.60
2018-09-14T03:03:39.896Z,70.23
2018-09-14T03:06:13.244Z,69.77
2018-09-14T03:08:45.916Z,79.23
2018-09-14T03:11:18.824Z,73.30
2018-09-14T03:13:51.404Z,69.83
2018-09-14T03:16:24.956Z,76.60
2018-09-14T03:18:58.169Z,71.13
2018-09-14T03:21:30.732Z,73.70
2018-09-14T03:24:04.004Z,66.53
2018-09-14T03:26:36.988Z,76.27
2018-09-14T03:29:09.580Z,77.90
2018-09-14T03:31:42.135Z,69.47
2018-09-14T03:34:15.567Z,66.70
2018-09-14T03:36:48.073Z,62.37
2018-09-14T03:39:21.298Z,74.50
2018-09-14T03:41:53.917Z,64.77
2018-09-14T03:44:26.468Z,57.60
2018-09-14T03:46:59.016Z,54.80
2018-09-14T03:49:31.857Z,51.90
2018-09-14T03:52:04.396Z,61.83
2018-09-14T03:54:37.786Z,68.30
2018-09-14T03:57:10.724Z,72.13
2018-09-14T03:59:43.126Z,69.40
2018-09-14T04:02:18.812Z,75.20
2018-09-14T04:04:52.828Z,85.60
2018-09-14T04:07:25.357Z,81.40
2018-09-14T04:09:58.021Z,64.27
2018-09-14T04:12:31.140Z,76.03
2018-09-14T04:15:05.213Z,68.47
2018-09-14T04:17:38.115Z,84.97
2018-09-14T04:20:11.646Z,73.97
2018-09-14T04:22:44.204Z,66.93
2018-09-14T04:25:17.037Z,62.47
2018-09-14T04:27:49.987Z,60.13
2018-09-14T04:30:22.624Z,63.33
2018-09-14T04:32:55.993Z,60.70
2018-09-14T04:35:28.812Z,66.83
2018-09-14T04:38:02.423Z,66.57
2018-09-14T04:40:34.977Z,64.47
2018-09-14T04:43:07.762Z,58.10
2018-09-14T04:45:40.957Z,62.03
2018-09-14T04:48:13.531Z,64.57
2018-09-14T04:50:46.157Z,68.63
2018-09-14T04:53:19.037Z,54.33
2018-09-14T04:55:53.348Z,56.63
2018-09-14T04:58:26.077Z,52.53
2018-09-14T05:00:59.097Z,61.20
2018-09-14T05:03:31.657Z,67.57
2018-09-14T05:06:05.211Z,69.63
2018-09-14T05:08:38.452Z,62.17
2018-09-14T05:11:11.042Z,65.37
2018-09-14T05:13:43.949Z,62.60
2018-09-14T05:16:17.213Z,87.17
2018-09-14T05:18:50.001Z,67.50
2018-09-14T05:21:22.741Z,64.43
2018-09-14T05:23:57.168Z,58.40
2018-09-14T05:26:29.549Z,57.40
2018-09-14T05:29:02.151Z,48.37
2018-09-14T05:31:35.036Z,70.43
2018-09-14T05:34:07.592Z,71.40
2018-09-14T05:36:41.223Z,67.70
2018-09-14T05:39:14.438Z,67.27
2018-09-14T05:41:48.480Z,66.68
2018-09-14T05:44:21.148Z,64.13
2018-09-14T05:46:54.322Z,64.47
2018-09-14T05:49:26.880Z,72.53
2018-09-14T05:52:00.749Z,65.97
2018-09-14T05:54:33.374Z,62.88
2018-09-14T05:57:06.016Z,58.03
2018-09-14T05:59:40.840Z,58.70
2018-09-14T06:02:13.540Z,61.63
2018-09-14T06:04:46.029Z,65.13
2018-09-14T06:07:19.125Z,68.60
2018-09-14T06:09:53.475Z,59.03
2018-09-14T06:12:26.135Z,50.47
2018-09-14T06:15:00.295Z,55.20
2018-09-14T06:17:33.896Z,53.70
2018-09-14T06:20:07.271Z,54.63
2018-09-14T06:22:41.441Z,56.57
2018-09-14T06:25:19.048Z,61.10
2018-09-14T06:27:52.016Z,52.47
2018-09-14T06:30:24.888Z,55.20
2018-09-14T06:32:58.117Z,66.17
2018-09-14T06:35:34.352Z,60.00
2018-09-14T06:38:07.333Z,63.43
2018-09-14T06:40:40.195Z,52.67
2018-09-14T06:43:13.193Z,60.33
2018-09-14T06:45:45.687Z,69.80
2018-09-14T06:48:20.740Z,76.07
2018-09-14T06:50:54.374Z,70.23
2018-09-14T06:53:27.785Z,60.67
2018-09-14T06:56:01.278Z,82.67
2018-09-14T06:58:35.948Z,76.03
2018-09-14T07:01:08.509Z,83.80
2018-09-14T07:03:42.189Z,77.93
2018-09-14T07:06:16.360Z,81.43
2018-09-14T07:08:50.573Z,81.77
2018-09-14T07:11:23.326Z,74.80
2018-09-14T07:13:58.949Z,72.78
2018-09-14T07:16:32.742Z,74.50
2018-09-14T07:19:05.605Z,73.70
2018-09-14T07:21:43.093Z,83.70
2018-09-14T07:24:15.656Z,77.63
2018-09-14T07:26:48.816Z,88.17
2018-09-14T07:29:23.400Z,89.90
2018-09-14T07:32:00.628Z,100.57
2018-09-14T07:34:33.652Z,120.35
2018-09-14T07:37:08.751Z,133.12
2018-09-14T07:39:48.023Z,159.70
2018-09-14T07:42:20.976Z,174.03
2018-09-14T07:44:55.157Z,254.40
2018-09-14T07:47:29.660Z,226.73
2018-09-14T07:50:05.824Z,201.13
2018-09-14T07:52:44.161Z,202.90
2018-09-14T07:55:16.764Z,205.07
2018-09-14T07:57:54.311Z,241.43
2018-09-14T08:00:26.949Z,161.12
2018-09-14T08:02:59.968Z,156.67
2018-09-14T08:05:34.069Z,130.97
2018-09-14T08:08:07.909Z,109.60
2018-09-14T08:10:40.400Z,91.67
2018-09-14T08:13:14.596Z,85.47
2018-09-14T08:15:47.136Z,74.13
2018-09-14T08:18:21.803Z,70.90
2018-09-14T08:20:55.565Z,73.72
2018-09-14T08:23:32.228Z,76.60
2018-09-14T08:26:07.744Z,66.70
2018-09-14T08:28:42.754Z,66.17
2018-09-14T08:31:24.048Z,60.30
2018-09-14T08:33:59.460Z,68.10
2018-09-14T08:36:32.769Z,61.57
2018-09-14T08:39:12.195Z,57.63
2018-09-14T08:41:46.120Z,57.40
2018-09-14T08:44:19.032Z,53.27
2018-09-14T08:46:54.323Z,58.22
2018-09-14T08:49:33.596Z,54.43
2018-09-14T08:52:06.287Z,52.07
2018-09-14T08:54:39.642Z,55.67
2018-09-14T08:57:13.909Z,46.60
2018-09-14T08:59:49.285Z,49.27
2018-09-14T09:02:21.891Z,46.77
2018-09-14T09:04:55.288Z,47.90
2018-09-14T09:07:28.616Z,42.77
2018-09-14T09:10:01.229Z,44.20
2018-09-14T09:12:36.013Z,43.97
2018-09-14T09:15:19.629Z,41.27
2018-09-14T09:17:54.597Z,45.60
2018-09-14T09:20:29.452Z,42.00
2018-09-14T09:23:03.467Z,42.40
2018-09-14T09:25:37.712Z,41.73
2018-09-14T09:28:11.633Z,39.43
2018-09-14T09:30:46.009Z,41.77
2018-09-14T09:33:19.418Z,46.87
2018-09-14T09:35:54.287Z,47.03
2018-09-14T09:38:29.104Z,46.58
2018-09-14T09:41:03.156Z,48.25
2018-09-14T09:43:37.022Z,50.85
2018-09-14T09:46:10.401Z,48.03
2018-09-14T09:48:43.056Z,48.20
2018-09-14T09:51:16.148Z,45.97
2018-09-14T09:53:49.859Z,48.17
2018-09-14T09:56:22.420Z,45.00
2018-09-14T09:58:55.216Z,46.27
2018-09-14T10:01:33.176Z,45.57
2018-09-14T10:04:13.780Z,43.97
2018-09-14T10:06:48.019Z,45.42
2018-09-14T10:09:21.479Z,44.97
2018-09-14T10:11:55.996Z,39.10
2018-09-14T10:14:32.453Z,36.83
2018-09-14T10:17:10.481Z,37.20
2018-09-14T10:19:44.740Z,38.83
2018-09-14T10:22:21.343Z,37.30
2018-09-14T10:24:54.900Z,34.53
2018-09-14T10:27:28.222Z,34.23
2018-09-14T10:30:00.756Z,28.70
2018-09-14T10:32:38.825Z,33.07
2018-09-14T10:35:13.383Z,31.35
2018-09-14T10:37:47.305Z,24.13
2018-09-14T10:40:24.790Z,30.30
2018-09-14T10:42:57.792Z,33.43
2018-09-14T10:45:31.617Z,28.93
2018-09-14T10:48:06.014Z,33.90
2018-09-14T10:50:43.575Z,29.55
2018-09-14T10:53:20.034Z,26.30
2018-09-14T10:55:52.599Z,23.03
2018-09-14T10:58:41.156Z,25.77
2018-09-14T11:01:15.612Z,27.53
2018-09-14T11:03:49.984Z,24.30
2018-09-14T11:06:25.633Z,23.97
2018-09-14T11:08:59.911Z,18.37
2018-09-14T11:11:33.700Z,19.63
2018-09-14T11:14:12.540Z,20.07
2018-09-14T11:16:46.939Z,21.35
2018-09-14T11:19:21.029Z,22.27
2018-09-14T11:21:53.608Z,21.83
2018-09-14T11:24:27.590Z,23.10
2018-09-14T11:27:00.284Z,18.37
2018-09-14T11:29:33.773Z,18.33
2018-09-14T11:32:09.501Z,19.43
2018-09-14T11:34:44.045Z,17.97
2018-09-14T11:37:18.358Z,15.97
2018-09-14T11:39:53.345Z,14.10
2018-09-14T11:42:26.910Z,14.63
2018-09-14T11:45:02.683Z,14.67
2018-09-14T11:47:36.759Z,15.07
2018-09-14T11:50:10.650Z,14.83
2018-09-14T11:52:44.716Z,14.53
2018-09-14T11:55:17.625Z,17.53
2018-09-14T11:57:52.249Z,14.23
2018-09-14T12:00:26.238Z,15.20
2018-09-14T12:03:00.316Z,14.13
2018-09-14T12:05:35.535Z,15.73
2018-09-14T12:08:09.215Z,13.00
2018-09-14T12:10:43.196Z,14.47
2018-09-14T12:13:17.934Z,13.17
2018-09-14T12:16:08.668Z,13.07
2018-09-14T12:18:42.233Z,15.57
2018-09-14T12:21:17.319Z,14.53
2018-09-14T12:23:51.624Z,12.37
2018-09-14T12:26:26.372Z,15.77
2018-09-14T12:28:59.635Z,12.43
2018-09-14T12:31:32.505Z,12.07
2018-09-14T12:34:05.284Z,13.03
2018-09-14T12:36:38.097Z,13.47
2018-09-14T12:39:11.592Z,15.67
2018-09-14T12:41:51.898Z,15.20
2018-09-14T12:44:27.318Z,15.10
2018-09-14T12:47:02.886Z,12.83
2018-09-14T12:49:39.324Z,13.23
2018-09-14T12:52:12.972Z,12.47
2018-09-14T12:54:47.487Z,14.93
2018-09-14T12:57:22.225Z,11.27
2018-09-14T12:59:55.829Z,10.93
2018-09-14T13:02:35.353Z,13.27
2018-09-14T13:05:09.453Z,15.27
2018-09-14T13:07:44.307Z,11.47
2018-09-14T13:10:17.317Z,13.80
2018-09-14T13:12:50.876Z,11.93
2018-09-14T13:15:25.113Z,11.60
2018-09-14T13:18:01.091Z,12.20
2018-09-14T13:20:34.719Z,12.37
2018-09-14T13:23:08.277Z,10.20
2018-09-14T13:25:42.782Z,10.73
2018-09-14T13:28:17.735Z,11.30
2018-09-14T13:30:51.670Z,10.83
2018-09-14T13:33:27.730Z,12.30
2018-09-14T13:36:00.939Z,10.73
2018-09-14T13:38:34.844Z,13.00
2018-09-14T13:41:14.068Z,10.80
2018-09-14T13:43:49.039Z,10.07
2018-09-14T13:46:24.804Z,12.43
2018-09-14T13:48:58.725Z,14.27
2018-09-14T13:51:31.816Z,9.50
2018-09-14T13:54:04.658Z,10.73
2018-09-14T13:56:38.814Z,11.60
2018-09-14T13:59:12.980Z,9.00
2018-09-14T14:01:45.818Z,7.37
2018-09-14T14:04:21.987Z,9.97
2018-09-14T14:06:57.280Z,8.87
2018-09-14T14:09:30.326Z,9.23
2018-09-14T14:12:03.857Z,8.80
2018-09-14T14:14:42.713Z,6.97
2018-09-14T14:17:19.256Z,9.20
2018-09-14T14:19:53.763Z,10.23
2018-09-14T14:22:28.121Z,7.00
2018-09-14T14:25:01.132Z,11.13
2018-09-14T14:27:33.778Z,12.63
2018-09-14T14:30:08.597Z,9.37
2018-09-14T14:32:43.923Z,9.13
2018-09-14T14:35:18.120Z,11.87
2018-09-14T14:37:54.733Z,9.17
2018-09-14T14:40:27.277Z,9.30
2018-09-14T14:42:59.947Z,11.50
2018-09-14T14:45:33.155Z,11.63
2018-09-14T14:48:06.830Z,6.07
2018-09-14T14:50:40.937Z,9.97
2018-09-14T14:53:15.728Z,8.88
2018-09-14T14:55:49.745Z,8.47
2018-09-14T14:58:23.647Z,9.33
2018-09-14T15:00:58.257Z,9.32
2018-09-14T15:03:32.349Z,7.37
2018-09-14T15:06:05.956Z,10.30
2018-09-14T15:08:38.548Z,5.60
2018-09-14T15:11:11.560Z,5.97
2018-09-14T15:13:45.246Z,5.27
2018-09-14T15:16:18.177Z,6.53
2018-09-14T15:18:54.371Z,9.33
2018-09-14T15:21:27.681Z,8.17
2018-09-14T15:24:02.776Z,5.60
2018-09-14T15:26:44.621Z,5.53
2018-09-14T15:29:20.532Z,8.53
2018-09-14T15:31:56.309Z,5.40
2018-09-14T15:34:28.983Z,7.17
2018-09-14T15:37:05.479Z,7.93
2018-09-14T15:39:38.162Z,8.03
2018-09-14T15:42:11.152Z,5.12
2018-09-14T15:44:45.017Z,5.10
2018-09-14T15:47:19.116Z,7.60
2018-09-14T15:49:52.305Z,7.10
2018-09-14T15:52:24.923Z,6.53
2018-09-14T15:55:00.389Z,5.40
2018-09-14T15:57:33.415Z,6.37
2018-09-14T16:00:07.853Z,6.63
2018-09-14T16:02:40.560Z,8.00
2018-09-14T16:05:13.272Z,7.63
2018-09-14T16:07:48.205Z,5.93
2018-09-14T16:10:21.765Z,5.13
2018-09-14T16:12:55.348Z,4.83
2018-09-14T16:15:27.974Z,9.60
2018-09-14T16:18:00.790Z,7.20
2018-09-14T16:20:34.364Z,4.53
2018-09-14T16:23:08.088Z,5.33
2018-09-14T16:25:41.857Z,5.40
2018-09-14T16:28:15.601Z,9.00
2018-09-14T16:30:48.105Z,5.43
2018-09-14T16:33:23.469Z,5.67
2018-09-14T16:35:57.446Z,4.83
2018-09-14T16:38:34.076Z,5.93
2018-09-14T16:41:09.204Z,5.80
2018-09-14T16:43:44.468Z,6.40
2018-09-14T16:46:19.318Z,6.47
2018-09-14T16:48:54.557Z,5.43
2018-09-14T16:51:27.900Z,4.80
2018-09-14T16:54:03.943Z,6.90
2018-09-14T16:56:37.068Z,6.17
2018-09-14T16:59:12.285Z,5.07
2018-09-14T17:01:46.388Z,6.83
2018-09-14T17:04:21.372Z,8.63
2018-09-14T17:06:55.384Z,5.23
2018-09-14T17:09:31.375Z,8.47
2018-09-14T17:12:09.562Z,6.12
2018-09-14T17:14:42.236Z,5.27
2018-09-14T17:17:14.753Z,4.63
2018-09-14T17:19:48.363Z,6.03
2018-09-14T17:22:21.524Z,5.60
2018-09-14T17:24:59.321Z,5.70
2018-09-14T17:27:33.397Z,8.70
2018-09-14T17:30:08.619Z,6.70
2018-09-14T17:32:42.841Z,4.73
2018-09-14T17:35:17.949Z,4.90
2018-09-14T17:37:52.099Z,5.23
2018-09-14T17:40:27.972Z,8.23
2018-09-14T17:43:00.629Z,4.47
2018-09-14T17:45:35.676Z,8.47
2018-09-14T17:48:10.902Z,6.72
2018-09-14T17:50:49.695Z,7.40
2018-09-14T17:53:23.954Z,4.33
2018-09-14T17:55:57.038Z,7.63
2018-09-14T17:58:31.816Z,6.20
2018-09-14T18:01:07.270Z,4.53
2018-09-14T18:03:40.890Z,4.30
2018-09-14T18:06:18.114Z,4.13
2018-09-14T18:08:55.732Z,5.33
2018-09-14T18:11:30.848Z,3.87
2018-09-14T18:14:08.522Z,3.80
2018-09-14T18:16:43.640Z,4.43
2018-09-14T18:19:18.807Z,4.60
2018-09-14T18:21:57.665Z,5.80
2018-09-14T18:24:35.621Z,5.40
2018-09-14T18:27:10.625Z,5.50
2018-09-14T18:29:47.031Z,3.47
2018-09-14T18:32:21.327Z,6.03
2018-09-14T18:34:54.733Z,7.93
2018-09-14T18:37:30.159Z,4.67
2018-09-14T18:40:04.179Z,7.67
2018-09-14T18:42:40.557Z,6.00
2018-09-14T18:45:18.251Z,4.27
2018-09-14T18:47:51.589Z,5.27
2018-09-14T18:50:27.417Z,8.60
2018-09-14T18:53:02.381Z,6.23
2018-09-14T18:55:35.693Z,7.47
2018-09-14T18:58:11.706Z,7.10
2018-09-14T19:00:53.587Z,7.47
2018-09-14T19:03:31.075Z,5.37
2018-09-14T19:06:06.048Z,6.20
2018-09-14T19:08:44.811Z,7.10
2018-09-14T19:11:22.761Z,6.00
2018-09-14T19:13:58.906Z,4.85
2018-09-14T19:16:33.949Z,6.37
2018-09-14T19:19:07.635Z,5.80
2018-09-14T19:21:44.399Z,4.57
2018-09-14T19:24:18.576Z,5.07
2018-09-14T19:26:51.177Z,4.50
2018-09-14T19:29:31.733Z,6.47
2018-09-14T19:32:07.850Z,6.63
2018-09-14T19:34:43.719Z,4.03
2018-09-14T19:37:23.899Z,5.90
2018-09-14T19:39:57.325Z,5.73
2018-09-14T19:42:30.795Z,4.60
2018-09-14T19:45:07.466Z,6.00
2018-09-14T19:47:43.385Z,6.60
2018-09-14T19:50:16.312Z,8.03
2018-09-14T19:52:49.546Z,6.83
2018-09-14T19:55:26.561Z,4.63
2018-09-14T19:58:03.058Z,7.93
2018-09-14T20:00:40.819Z,4.87
2018-09-14T20:03:15.485Z,5.80
2018-09-14T20:05:51.709Z,6.77
2018-09-14T20:08:28.697Z,6.20
2018-09-14T20:11:02.741Z,5.33
2018-09-14T20:13:40.412Z,4.87
2018-09-14T20:16:14.987Z,5.23
2018-09-14T20:18:52.119Z,7.37
2018-09-14T20:21:26.278Z,7.13
2018-09-14T20:24:01.235Z,5.37
2018-09-14T20:26:35.388Z,4.20
2018-09-14T20:29:12.668Z,4.60
2018-09-14T20:31:47.097Z,6.73
2018-09-14T20:34:20.317Z,7.23
2018-09-14T20:36:54.445Z,4.17
2018-09-14T20:39:27.309Z,6.40
2018-09-14T20:41:59.814Z,7.22
2018-09-14T20:44:34.679Z,5.20
2018-09-14T20:47:16.036Z,5.77
2018-09-14T20:49:50.892Z,5.78
2018-09-14T20:52:27.062Z,7.33
2018-09-14T20:54:59.701Z,5.57
2018-09-14T20:57:33.653Z,6.23
2018-09-14T21:00:09.174Z,4.70
2018-09-14T21:02:43.828Z,5.87
2018-09-14T21:05:17.286Z,5.23
2018-09-14T21:07:51.984Z,9.87
2018-09-14T21:10:26.904Z,5.80
2018-09-14T21:13:01.743Z,6.07
2018-09-14T21:15:36.550Z,4.20
2018-09-14T21:18:09.697Z,5.43
2018-09-14T21:20:44.353Z,8.00
2018-09-14T21:23:18.127Z,4.67
2018-09-14T21:25:52.732Z,4.57
2018-09-14T21:28:27.646Z,9.67
2018-09-14T21:31:03.988Z,8.55
2018-09-14T21:33:36.901Z,8.38
2018-09-14T21:36:10.033Z,7.07
2018-09-14T21:38:45.343Z,8.30
2018-09-14T21:41:24.402Z,7.20
2018-09-14T21:44:03.588Z,5.57
2018-09-14T21:46:38.648Z,8.60
2018-09-14T21:49:14.445Z,9.37
2018-09-14T21:51:46.937Z,6.93
2018-09-14T21:54:19.625Z,6.37
2018-09-14T21:56:54.698Z,9.90
2018-09-14T21:59:30.166Z,7.27
2018-09-14T22:02:08.828Z,5.40
2018-09-14T22:04:48.490Z,4.60
2018-09-14T22:07:23.708Z,6.47
2018-09-14T22:09:59.629Z,5.03
2018-09-14T22:12:35.149Z,5.37
2018-09-14T22:15:07.646Z,4.50
2018-09-14T22:17:44.161Z,6.37
2018-09-14T22:20:22.876Z,4.10
2018-09-14T22:22:56.600Z,4.33
2018-09-14T22:25:31.549Z,5.60
2018-09-14T22:28:06.603Z,7.07
2018-09-14T22:30:46.472Z,11.93
2018-09-14T22:33:21.917Z,4.93
2018-09-14T22:35:55.820Z,4.50
2018-09-14T22:38:29.280Z,7.13
2018-09-14T22:41:02.671Z,6.57
2018-09-14T22:43:35.642Z,6.40
2018-09-14T22:46:10.485Z,4.22
2018-09-14T22:48:47.020Z,7.73
2018-09-14T22:51:19.891Z,7.47
2018-09-14T22:53:52.506Z,4.57
2018-09-14T22:56:25.321Z,9.53
2018-09-14T22:58:57.876Z,6.63
2018-09-14T23:01:36.490Z,7.07
2018-09-14T23:04:10.191Z,5.40
2018-09-14T23:06:42.804Z,8.00
2018-09-14T23:09:16.745Z,5.50
2018-09-14T23:11:50.973Z,6.37
2018-09-14T23:14:24.483Z,7.37
2018-09-14T23:17:00.969Z,7.67
2018-09-14T23:19:33.611Z,6.00
2018-09-14T23:22:08.666Z,6.00
2018-09-14T23:24:43.032Z,7.73
2018-09-14T23:27:16.134Z,6.97
2018-09-14T23:29:48.811Z,8.10
2018-09-14T23:32:22.714Z,5.93
2018-09-14T23:34:55.400Z,5.47
2018-09-14T23:37:30.976Z,10.90
2018-09-14T23:40:06.466Z,7.20
2018-09-14T23:42:41.500Z,6.30
2018-09-14T23:45:18.934Z,5.17
2018-09-14T23:47:52.764Z,5.43
2018-09-14T23:50:26.936Z,4.33
2018-09-14T23:53:00.034Z,4.77
2018-09-14T23:55:34.668Z,7.67
2018-09-14T23:58:11.337Z,10.53
